sensor_id;sensor_type;location;lat;lon;timestamp;temperature;humidity
52575;DHT22;38468;48.114;-1.684;2023-01-15T00:01:49;8.20;79.50
52575;DHT22;38468;48.114;-1.684;2023-01-15T00:03:52;8.20;79.30
52575;DHT22;38468;48.114;-1.684;2023-01-15T00:05:53;8.10;79.40
52575;DHT22;38468;48.114;-1.684;2023-01-15T00:07:53;8.10;79.70
52575;DHT22;38468;48.114;-1.684;2023-01-15T00:09:54;8.10;79.30
52575;DHT22;38468;48.114;-1.684;2023-01-15T00:11:55;8.10;79.40
52575;DHT22;38468;48.114;-1.684;2023-01-15T00:13:56;8.10;79.50
52575;DHT22;38468;48.114;-1.684;2023-01-15T00:16:23;8.20;79.40
52575;DHT22;38468;48.114;-1.684;2023-01-15T00:18:24;8.20;79.60
52575;DHT22;38468;48.114;-1.684;2023-01-15T00:20:24;8.20;79.60
52575;DHT22;38468;48.114;-1.684;2023-01-15T00:22:25;8.20;79.30
52575;DHT22;38468;48.114;-1.684;2023-01-15T00:24:26;8.20;79.10
52575;DHT22;38468;48.114;-1.684;2023-01-15T00:26:45;8.10;79.10
52575;DHT22;38468;48.114;-1.684;2023-01-15T00:29:05;8.00;78.80
52575;DHT22;38468;48.114;-1.684;2023-01-15T00:31:06;8.00;79.30
52575;DHT22;38468;48.114;-1.684;2023-01-15T00:33:08;8.10;79.60
52575;DHT22;38468;48.114;-1.684;2023-01-15T00:35:22;8.10;79.60
52575;DHT22;38468;48.114;-1.684;2023-01-15T00:37:23;8.00;79.20
52575;DHT22;38468;48.114;-1.684;2023-01-15T00:39:24;8.10;79.60
52575;DHT22;38468;48.114;-1.684;2023-01-15T00:41:25;8.00;79.30
52575;DHT22;38468;48.114;-1.684;2023-01-15T00:43:26;8.00;79.30
52575;DHT22;38468;48.114;-1.684;2023-01-15T00:45:27;8.00;79.10
52575;DHT22;38468;48.114;-1.684;2023-01-15T00:47:27;7.90;79.20
52575;DHT22;38468;48.114;-1.684;2023-01-15T00:49:28;8.00;79.20
52575;DHT22;38468;48.114;-1.684;2023-01-15T00:51:29;8.00;79.50
52575;DHT22;38468;48.114;-1.684;2023-01-15T00:53:30;8.00;79.20
52575;DHT22;38468;48.114;-1.684;2023-01-15T00:55:31;8.00;79.00
52575;DHT22;38468;48.114;-1.684;2023-01-15T00:57:32;7.90;79.00
52575;DHT22;38468;48.114;-1.684;2023-01-15T00:59:32;8.00;78.90
52575;DHT22;38468;48.114;-1.684;2023-01-15T01:01:33;8.00;78.70
52575;DHT22;38468;48.114;-1.684;2023-01-15T01:03:34;8.00;78.50
52575;DHT22;38468;48.114;-1.684;2023-01-15T01:05:34;8.00;78.80
52575;DHT22;38468;48.114;-1.684;2023-01-15T01:07:35;8.00;78.40
52575;DHT22;38468;48.114;-1.684;2023-01-15T01:09:36;8.00;78.60
52575;DHT22;38468;48.114;-1.684;2023-01-15T01:11:36;8.00;78.50
52575;DHT22;38468;48.114;-1.684;2023-01-15T01:13:38;8.10;78.60
52575;DHT22;38468;48.114;-1.684;2023-01-15T01:15:38;8.10;78.50
52575;DHT22;38468;48.114;-1.684;2023-01-15T01:17:39;8.10;78.40
52575;DHT22;38468;48.114;-1.684;2023-01-15T01:19:40;8.10;78.60
52575;DHT22;38468;48.114;-1.684;2023-01-15T01:21:42;8.10;78.20
52575;DHT22;38468;48.114;-1.684;2023-01-15T01:23:43;8.10;78.30
52575;DHT22;38468;48.114;-1.684;2023-01-15T01:25:43;8.10;78.10
52575;DHT22;38468;48.114;-1.684;2023-01-15T01:27:45;8.00;77.80
52575;DHT22;38468;48.114;-1.684;2023-01-15T01:29:45;8.00;78.00
52575;DHT22;38468;48.114;-1.684;2023-01-15T01:31:46;8.00;78.00
52575;DHT22;38468;48.114;-1.684;2023-01-15T01:33:49;8.00;78.00
52575;DHT22;38468;48.114;-1.684;2023-01-15T01:35:49;8.00;77.80
52575;DHT22;38468;48.114;-1.684;2023-01-15T01:37:50;8.00;77.80
52575;DHT22;38468;48.114;-1.684;2023-01-15T01:39:51;8.00;77.60
52575;DHT22;38468;48.114;-1.684;2023-01-15T01:41:52;7.90;77.50
52575;DHT22;38468;48.114;-1.684;2023-01-15T01:46:01;7.90;77.50
52575;DHT22;38468;48.114;-1.684;2023-01-15T01:48:04;7.90;77.30
52575;DHT22;38468;48.114;-1.684;2023-01-15T01:50:09;7.90;76.90
52575;DHT22;38468;48.114;-1.684;2023-01-15T01:52:14;7.90;76.60
52575;DHT22;38468;48.114;-1.684;2023-01-15T01:54:20;7.90;76.70
52575;DHT22;38468;48.114;-1.684;2023-01-15T01:56:22;8.00;76.70
52575;DHT22;38468;48.114;-1.684;2023-01-15T01:58:27;8.00;76.10
52575;DHT22;38468;48.114;-1.684;2023-01-15T02:00:32;7.80;76.00
52575;DHT22;38468;48.114;-1.684;2023-01-15T02:02:34;7.80;76.40
52575;DHT22;38468;48.114;-1.684;2023-01-15T02:04:36;7.70;75.90
52575;DHT22;38468;48.114;-1.684;2023-01-15T02:06:40;7.60;75.70
52575;DHT22;38468;48.114;-1.684;2023-01-15T02:08:41;7.60;75.40
52575;DHT22;38468;48.114;-1.684;2023-01-15T02:10:42;7.50;75.20
52575;DHT22;38468;48.114;-1.684;2023-01-15T02:12:53;7.50;75.20
52575;DHT22;38468;48.114;-1.684;2023-01-15T02:17:24;7.50;75.50
52575;DHT22;38468;48.114;-1.684;2023-01-15T02:19:48;7.50;75.30
52575;DHT22;38468;48.114;-1.684;2023-01-15T02:27:19;7.40;75.10
52575;DHT22;38468;48.114;-1.684;2023-01-15T02:31:42;7.40;75.40
52575;DHT22;38468;48.114;-1.684;2023-01-15T02:33:58;7.50;75.50
52575;DHT22;38468;48.114;-1.684;2023-01-15T02:36:04;7.50;75.40
52575;DHT22;38468;48.114;-1.684;2023-01-15T02:38:09;7.40;75.40
52575;DHT22;38468;48.114;-1.684;2023-01-15T02:40:12;7.50;75.30
52575;DHT22;38468;48.114;-1.684;2023-01-15T02:42:14;7.50;75.50
52575;DHT22;38468;48.114;-1.684;2023-01-15T02:44:16;7.40;75.50
52575;DHT22;38468;48.114;-1.684;2023-01-15T02:46:20;7.40;75.80
52575;DHT22;38468;48.114;-1.684;2023-01-15T02:48:25;7.50;75.50
52575;DHT22;38468;48.114;-1.684;2023-01-15T02:50:30;7.50;75.40
52575;DHT22;38468;48.114;-1.684;2023-01-15T02:52:36;7.50;75.20
52575;DHT22;38468;48.114;-1.684;2023-01-15T02:54:50;7.50;75.40
52575;DHT22;38468;48.114;-1.684;2023-01-15T02:56:54;7.50;75.50
52575;DHT22;38468;48.114;-1.684;2023-01-15T02:58:58;7.50;75.40
52575;DHT22;38468;48.114;-1.684;2023-01-15T03:01:03;7.50;75.70
52575;DHT22;38468;48.114;-1.684;2023-01-15T03:05:55;7.50;75.80
52575;DHT22;38468;48.114;-1.684;2023-01-15T03:07:54;7.50;75.90
52575;DHT22;38468;48.114;-1.684;2023-01-15T03:09:56;7.50;75.90
52575;DHT22;38468;48.114;-1.684;2023-01-15T03:14:08;7.50;75.40
52575;DHT22;38468;48.114;-1.684;2023-01-15T03:18:49;7.50;75.50
52575;DHT22;38468;48.114;-1.684;2023-01-15T03:20:58;7.60;75.50
52575;DHT22;38468;48.114;-1.684;2023-01-15T03:23:06;7.60;75.80
52575;DHT22;38468;48.114;-1.684;2023-01-15T03:25:22;7.60;76.10
52575;DHT22;38468;48.114;-1.684;2023-01-15T03:27:23;7.60;76.30
52575;DHT22;38468;48.114;-1.684;2023-01-15T03:29:28;7.50;75.00
52575;DHT22;38468;48.114;-1.684;2023-01-15T03:31:29;7.40;74.00
52575;DHT22;38468;48.114;-1.684;2023-01-15T03:33:30;7.40;74.10
52575;DHT22;38468;48.114;-1.684;2023-01-15T03:37:46;7.40;73.90
52575;DHT22;38468;48.114;-1.684;2023-01-15T03:39:47;7.40;74.10
52575;DHT22;38468;48.114;-1.684;2023-01-15T03:41:50;7.40;73.90
52575;DHT22;38468;48.114;-1.684;2023-01-15T03:44:01;7.40;73.90
52575;DHT22;38468;48.114;-1.684;2023-01-15T03:48:34;7.40;73.30
52575;DHT22;38468;48.114;-1.684;2023-01-15T03:54:56;7.40;73.90
52575;DHT22;38468;48.114;-1.684;2023-01-15T03:59:22;7.40;74.20
52575;DHT22;38468;48.114;-1.684;2023-01-15T04:01:31;7.40;74.20
52575;DHT22;38468;48.114;-1.684;2023-01-15T04:03:35;7.40;74.60
52575;DHT22;38468;48.114;-1.684;2023-01-15T04:05:36;7.40;74.80
52575;DHT22;38468;48.114;-1.684;2023-01-15T04:07:38;7.30;74.60
52575;DHT22;38468;48.114;-1.684;2023-01-15T04:09:39;7.30;74.60
52575;DHT22;38468;48.114;-1.684;2023-01-15T04:11:40;7.40;74.60
52575;DHT22;38468;48.114;-1.684;2023-01-15T04:13:41;7.30;74.20
52575;DHT22;38468;48.114;-1.684;2023-01-15T04:15:42;7.20;74.40
52575;DHT22;38468;48.114;-1.684;2023-01-15T04:17:42;7.30;73.80
52575;DHT22;38468;48.114;-1.684;2023-01-15T04:19:43;7.10;73.50
52575;DHT22;38468;48.114;-1.684;2023-01-15T04:21:43;7.10;73.30
52575;DHT22;38468;48.114;-1.684;2023-01-15T04:23:44;7.10;73.10
52575;DHT22;38468;48.114;-1.684;2023-01-15T04:25:45;7.10;72.80
52575;DHT22;38468;48.114;-1.684;2023-01-15T04:27:46;7.10;72.00
52575;DHT22;38468;48.114;-1.684;2023-01-15T04:29:47;7.10;71.50
52575;DHT22;38468;48.114;-1.684;2023-01-15T04:31:47;7.10;71.30
52575;DHT22;38468;48.114;-1.684;2023-01-15T04:33:52;7.00;70.90
52575;DHT22;38468;48.114;-1.684;2023-01-15T04:35:52;7.00;70.50
52575;DHT22;38468;48.114;-1.684;2023-01-15T04:37:55;6.90;70.10
52575;DHT22;38468;48.114;-1.684;2023-01-15T04:39:55;6.90;70.50
52575;DHT22;38468;48.114;-1.684;2023-01-15T04:41:56;6.80;70.30
52575;DHT22;38468;48.114;-1.684;2023-01-15T04:44:15;6.90;70.10
52575;DHT22;38468;48.114;-1.684;2023-01-15T04:46:20;6.70;70.40
52575;DHT22;38468;48.114;-1.684;2023-01-15T04:48:21;6.60;70.60
52575;DHT22;38468;48.114;-1.684;2023-01-15T04:50:22;6.60;71.10
52575;DHT22;38468;48.114;-1.684;2023-01-15T04:52:22;6.70;71.40
52575;DHT22;38468;48.114;-1.684;2023-01-15T04:54:23;6.70;71.10
52575;DHT22;38468;48.114;-1.684;2023-01-15T04:56:24;6.70;71.30
52575;DHT22;38468;48.114;-1.684;2023-01-15T04:58:24;6.70;71.30
52575;DHT22;38468;48.114;-1.684;2023-01-15T05:00:25;6.70;71.40
52575;DHT22;38468;48.114;-1.684;2023-01-15T05:02:26;6.70;71.40
52575;DHT22;38468;48.114;-1.684;2023-01-15T05:04:26;6.60;71.60
52575;DHT22;38468;48.114;-1.684;2023-01-15T05:06:27;6.50;72.00
52575;DHT22;38468;48.114;-1.684;2023-01-15T05:08:28;6.70;72.10
52575;DHT22;38468;48.114;-1.684;2023-01-15T05:10:29;6.60;72.00
52575;DHT22;38468;48.114;-1.684;2023-01-15T05:12:29;6.50;72.30
52575;DHT22;38468;48.114;-1.684;2023-01-15T05:14:30;6.60;72.20
52575;DHT22;38468;48.114;-1.684;2023-01-15T05:16:31;6.50;72.60
52575;DHT22;38468;48.114;-1.684;2023-01-15T05:18:32;6.50;73.00
52575;DHT22;38468;48.114;-1.684;2023-01-15T05:20:36;6.60;72.90
52575;DHT22;38468;48.114;-1.684;2023-01-15T05:22:37;6.50;73.10
52575;DHT22;38468;48.114;-1.684;2023-01-15T05:24:38;6.50;73.20
52575;DHT22;38468;48.114;-1.684;2023-01-15T05:26:38;6.50;73.40
52575;DHT22;38468;48.114;-1.684;2023-01-15T05:28:39;6.40;73.40
52575;DHT22;38468;48.114;-1.684;2023-01-15T05:30:40;6.40;73.80
52575;DHT22;38468;48.114;-1.684;2023-01-15T05:32:40;6.40;73.90
52575;DHT22;38468;48.114;-1.684;2023-01-15T05:34:41;6.30;74.50
52575;DHT22;38468;48.114;-1.684;2023-01-15T05:36:42;6.30;74.50
52575;DHT22;38468;48.114;-1.684;2023-01-15T05:38:43;6.30;74.80
52575;DHT22;38468;48.114;-1.684;2023-01-15T05:40:43;6.40;74.60
52575;DHT22;38468;48.114;-1.684;2023-01-15T05:42:44;6.40;74.60
52575;DHT22;38468;48.114;-1.684;2023-01-15T05:44:45;6.40;74.40
52575;DHT22;38468;48.114;-1.684;2023-01-15T05:46:46;6.40;74.20
52575;DHT22;38468;48.114;-1.684;2023-01-15T05:48:47;6.30;74.40
52575;DHT22;38468;48.114;-1.684;2023-01-15T05:50:48;6.20;74.80
52575;DHT22;38468;48.114;-1.684;2023-01-15T05:52:48;6.10;74.90
52575;DHT22;38468;48.114;-1.684;2023-01-15T05:54:49;6.20;74.50
52575;DHT22;38468;48.114;-1.684;2023-01-15T05:56:50;6.20;74.50
52575;DHT22;38468;48.114;-1.684;2023-01-15T05:58:52;6.20;74.20
52575;DHT22;38468;48.114;-1.684;2023-01-15T06:00:53;6.20;74.20
52575;DHT22;38468;48.114;-1.684;2023-01-15T06:02:54;6.20;74.10
52575;DHT22;38468;48.114;-1.684;2023-01-15T06:04:55;6.20;73.80
52575;DHT22;38468;48.114;-1.684;2023-01-15T06:06:56;6.20;73.50
52575;DHT22;38468;48.114;-1.684;2023-01-15T06:08:57;6.30;73.40
52575;DHT22;38468;48.114;-1.684;2023-01-15T06:10:58;6.30;73.00
52575;DHT22;38468;48.114;-1.684;2023-01-15T06:12:58;6.30;72.70
52575;DHT22;38468;48.114;-1.684;2023-01-15T06:14:59;6.30;72.50
52575;DHT22;38468;48.114;-1.684;2023-01-15T06:16:59;6.20;72.60
52575;DHT22;38468;48.114;-1.684;2023-01-15T06:19:03;6.20;72.60
52575;DHT22;38468;48.114;-1.684;2023-01-15T06:21:09;6.30;72.40
52575;DHT22;38468;48.114;-1.684;2023-01-15T06:23:11;6.30;72.30
52575;DHT22;38468;48.114;-1.684;2023-01-15T06:25:11;6.40;72.10
52575;DHT22;38468;48.114;-1.684;2023-01-15T06:27:12;6.40;72.00
52575;DHT22;38468;48.114;-1.684;2023-01-15T06:29:12;6.40;72.00
52575;DHT22;38468;48.114;-1.684;2023-01-15T06:31:19;6.30;71.60
52575;DHT22;38468;48.114;-1.684;2023-01-15T06:33:20;6.20;71.70
52575;DHT22;38468;48.114;-1.684;2023-01-15T06:35:21;6.20;71.80
52575;DHT22;38468;48.114;-1.684;2023-01-15T06:37:22;6.30;71.60
52575;DHT22;38468;48.114;-1.684;2023-01-15T06:39:22;6.30;71.50
52575;DHT22;38468;48.114;-1.684;2023-01-15T06:41:24;6.30;71.60
52575;DHT22;38468;48.114;-1.684;2023-01-15T06:43:43;6.40;71.60
52575;DHT22;38468;48.114;-1.684;2023-01-15T06:46:03;6.20;71.70
52575;DHT22;38468;48.114;-1.684;2023-01-15T06:48:22;6.20;72.10
52575;DHT22;38468;48.114;-1.684;2023-01-15T06:50:24;6.10;72.20
52575;DHT22;38468;48.114;-1.684;2023-01-15T06:52:26;6.10;72.30
52575;DHT22;38468;48.114;-1.684;2023-01-15T06:54:27;6.00;72.40
52575;DHT22;38468;48.114;-1.684;2023-01-15T06:56:28;6.00;72.50
52575;DHT22;38468;48.114;-1.684;2023-01-15T06:58:29;5.90;72.70
52575;DHT22;38468;48.114;-1.684;2023-01-15T07:00:29;5.90;73.00
52575;DHT22;38468;48.114;-1.684;2023-01-15T07:02:30;5.90;73.00
52575;DHT22;38468;48.114;-1.684;2023-01-15T07:04:31;5.90;73.20
52575;DHT22;38468;48.114;-1.684;2023-01-15T07:06:31;5.90;73.00
52575;DHT22;38468;48.114;-1.684;2023-01-15T07:08:32;5.90;73.00
52575;DHT22;38468;48.114;-1.684;2023-01-15T07:10:34;5.90;73.20
52575;DHT22;38468;48.114;-1.684;2023-01-15T07:12:35;5.90;73.10
52575;DHT22;38468;48.114;-1.684;2023-01-15T07:14:35;5.90;72.90
52575;DHT22;38468;48.114;-1.684;2023-01-15T07:16:36;5.90;72.80
52575;DHT22;38468;48.114;-1.684;2023-01-15T07:18:37;5.90;73.00
52575;DHT22;38468;48.114;-1.684;2023-01-15T07:20:37;5.90;73.00
52575;DHT22;38468;48.114;-1.684;2023-01-15T07:22:38;5.90;73.00
52575;DHT22;38468;48.114;-1.684;2023-01-15T07:24:39;5.90;73.20
52575;DHT22;38468;48.114;-1.684;2023-01-15T07:26:40;5.90;73.20
52575;DHT22;38468;48.114;-1.684;2023-01-15T07:28:41;5.90;73.40
52575;DHT22;38468;48.114;-1.684;2023-01-15T07:30:41;5.90;73.20
52575;DHT22;38468;48.114;-1.684;2023-01-15T07:32:42;5.90;73.40
52575;DHT22;38468;48.114;-1.684;2023-01-15T07:34:43;5.90;73.40
52575;DHT22;38468;48.114;-1.684;2023-01-15T07:36:43;5.90;73.40
52575;DHT22;38468;48.114;-1.684;2023-01-15T07:38:44;5.90;73.30
52575;DHT22;38468;48.114;-1.684;2023-01-15T07:40:45;5.90;73.60
52575;DHT22;38468;48.114;-1.684;2023-01-15T07:43:05;5.90;73.90
52575;DHT22;38468;48.114;-1.684;2023-01-15T07:45:24;5.90;74.00
52575;DHT22;38468;48.114;-1.684;2023-01-15T07:47:43;5.90;73.80
52575;DHT22;38468;48.114;-1.684;2023-01-15T07:50:04;5.90;73.90
52575;DHT22;38468;48.114;-1.684;2023-01-15T07:52:05;5.90;74.10
52575;DHT22;38468;48.114;-1.684;2023-01-15T07:54:05;5.90;74.00
52575;DHT22;38468;48.114;-1.684;2023-01-15T07:56:06;5.90;74.10
52575;DHT22;38468;48.114;-1.684;2023-01-15T07:58:07;5.90;74.20
52575;DHT22;38468;48.114;-1.684;2023-01-15T08:00:12;5.90;74.20
52575;DHT22;38468;48.114;-1.684;2023-01-15T08:02:13;5.90;74.30
52575;DHT22;38468;48.114;-1.684;2023-01-15T08:04:13;5.90;74.40
52575;DHT22;38468;48.114;-1.684;2023-01-15T08:06:14;5.90;74.60
52575;DHT22;38468;48.114;-1.684;2023-01-15T08:08:16;6.00;74.40
52575;DHT22;38468;48.114;-1.684;2023-01-15T08:10:17;6.00;74.20
52575;DHT22;38468;48.114;-1.684;2023-01-15T08:12:19;6.10;74.30
52575;DHT22;38468;48.114;-1.684;2023-01-15T08:14:39;6.10;74.20
52575;DHT22;38468;48.114;-1.684;2023-01-15T08:16:58;6.20;74.10
52575;DHT22;38468;48.114;-1.684;2023-01-15T08:18:59;6.30;74.00
52575;DHT22;38468;48.114;-1.684;2023-01-15T08:20:59;6.30;73.90
52575;DHT22;38468;48.114;-1.684;2023-01-15T08:23:00;6.40;73.50
52575;DHT22;38468;48.114;-1.684;2023-01-15T08:25:01;6.40;73.40
52575;DHT22;38468;48.114;-1.684;2023-01-15T08:27:02;6.50;73.30
52575;DHT22;38468;48.114;-1.684;2023-01-15T08:29:03;6.50;73.10
52575;DHT22;38468;48.114;-1.684;2023-01-15T08:31:05;6.50;73.00
52575;DHT22;38468;48.114;-1.684;2023-01-15T08:33:05;6.60;72.80
52575;DHT22;38468;48.114;-1.684;2023-01-15T08:35:06;6.60;73.00
52575;DHT22;38468;48.114;-1.684;2023-01-15T08:37:08;6.70;72.90
52575;DHT22;38468;48.114;-1.684;2023-01-15T08:39:09;6.70;72.80
52575;DHT22;38468;48.114;-1.684;2023-01-15T08:41:10;6.80;72.70
52575;DHT22;38468;48.114;-1.684;2023-01-15T08:43:10;6.80;72.60
52575;DHT22;38468;48.114;-1.684;2023-01-15T08:45:11;6.90;72.40
52575;DHT22;38468;48.114;-1.684;2023-01-15T08:47:12;6.90;72.00
52575;DHT22;38468;48.114;-1.684;2023-01-15T08:49:13;6.90;72.40
52575;DHT22;38468;48.114;-1.684;2023-01-15T08:51:14;7.00;72.40
52575;DHT22;38468;48.114;-1.684;2023-01-15T08:53:15;7.00;72.00
52575;DHT22;38468;48.114;-1.684;2023-01-15T08:55:16;7.00;71.90
52575;DHT22;38468;48.114;-1.684;2023-01-15T08:57:17;7.10;72.20
52575;DHT22;38468;48.114;-1.684;2023-01-15T08:59:17;7.20;71.90
52575;DHT22;38468;48.114;-1.684;2023-01-15T09:01:18;7.60;71.10
52575;DHT22;38468;48.114;-1.684;2023-01-15T09:03:19;8.50;69.40
52575;DHT22;38468;48.114;-1.684;2023-01-15T09:05:20;9.50;66.10
52575;DHT22;38468;48.114;-1.684;2023-01-15T09:07:20;10.30;65.40
52575;DHT22;38468;48.114;-1.684;2023-01-15T09:09:21;10.80;62.40
52575;DHT22;38468;48.114;-1.684;2023-01-15T09:11:21;11.10;60.70
52575;DHT22;38468;48.114;-1.684;2023-01-15T09:13:22;11.50;59.70
52575;DHT22;38468;48.114;-1.684;2023-01-15T09:15:23;11.30;59.20
52575;DHT22;38468;48.114;-1.684;2023-01-15T09:17:23;11.10;59.00
52575;DHT22;38468;48.114;-1.684;2023-01-15T09:19:24;12.10;58.60
52575;DHT22;38468;48.114;-1.684;2023-01-15T09:21:25;12.00;57.60
52575;DHT22;38468;48.114;-1.684;2023-01-15T09:23:25;12.40;55.50
52575;DHT22;38468;48.114;-1.684;2023-01-15T09:25:26;12.50;55.40
52575;DHT22;38468;48.114;-1.684;2023-01-15T09:27:27;12.20;55.80
52575;DHT22;38468;48.114;-1.684;2023-01-15T09:29:28;12.60;55.60
52575;DHT22;38468;48.114;-1.684;2023-01-15T09:31:29;12.20;54.80
52575;DHT22;38468;48.114;-1.684;2023-01-15T09:33:29;12.40;55.80
52575;DHT22;38468;48.114;-1.684;2023-01-15T09:35:30;12.70;55.60
52575;DHT22;38468;48.114;-1.684;2023-01-15T09:37:31;13.90;54.20
52575;DHT22;38468;48.114;-1.684;2023-01-15T09:39:31;12.60;52.80
52575;DHT22;38468;48.114;-1.684;2023-01-15T09:44:28;13.30;52.80
52575;DHT22;38468;48.114;-1.684;2023-01-15T09:46:57;13.70;51.40
52575;DHT22;38468;48.114;-1.684;2023-01-15T09:56:05;14.20;50.90
52575;DHT22;38468;48.114;-1.684;2023-01-15T09:58:10;14.60;49.60
52575;DHT22;38468;48.114;-1.684;2023-01-15T10:00:17;14.50;49.70
52575;DHT22;38468;48.114;-1.684;2023-01-15T10:04:36;14.20;50.30
52575;DHT22;38468;48.114;-1.684;2023-01-15T10:07:09;14.80;49.70
52575;DHT22;38468;48.114;-1.684;2023-01-15T10:09:17;14.10;50.60
52575;DHT22;38468;48.114;-1.684;2023-01-15T10:11:30;13.40;51.70
52575;DHT22;38468;48.114;-1.684;2023-01-15T10:13:55;12.10;55.40
52575;DHT22;38468;48.114;-1.684;2023-01-15T10:15:59;11.10;58.70
52575;DHT22;38468;48.114;-1.684;2023-01-15T10:18:00;11.20;58.40
52575;DHT22;38468;48.114;-1.684;2023-01-15T10:20:01;10.30;60.70
52575;DHT22;38468;48.114;-1.684;2023-01-15T10:26:36;11.70;56.70
52575;DHT22;38468;48.114;-1.684;2023-01-15T10:30:54;12.00;56.20
52575;DHT22;38468;48.114;-1.684;2023-01-15T10:32:56;12.80;55.70
52575;DHT22;38468;48.114;-1.684;2023-01-15T10:37:29;12.10;57.00
52575;DHT22;38468;48.114;-1.684;2023-01-15T10:40:04;11.90;57.50
52575;DHT22;38468;48.114;-1.684;2023-01-15T10:44:55;13.60;53.10
52575;DHT22;38468;48.114;-1.684;2023-01-15T10:47:00;14.10;52.90
52575;DHT22;38468;48.114;-1.684;2023-01-15T10:49:05;14.60;52.30
52575;DHT22;38468;48.114;-1.684;2023-01-15T10:51:23;14.50;51.90
52575;DHT22;38468;48.114;-1.684;2023-01-15T10:53:34;14.40;53.50
52575;DHT22;38468;48.114;-1.684;2023-01-15T10:55:45;14.00;52.80
52575;DHT22;38468;48.114;-1.684;2023-01-15T10:57:59;13.00;55.20
52575;DHT22;38468;48.114;-1.684;2023-01-15T11:00:04;12.00;58.10
52575;DHT22;38468;48.114;-1.684;2023-01-15T11:04:30;12.50;58.80
52575;DHT22;38468;48.114;-1.684;2023-01-15T11:06:32;12.50;58.10
52575;DHT22;38468;48.114;-1.684;2023-01-15T11:08:35;13.40;56.30
52575;DHT22;38468;48.114;-1.684;2023-01-15T11:10:37;13.90;53.60
52575;DHT22;38468;48.114;-1.684;2023-01-15T11:12:39;14.00;53.90
52575;DHT22;38468;48.114;-1.684;2023-01-15T11:14:58;13.90;53.40
52575;DHT22;38468;48.114;-1.684;2023-01-15T11:17:17;13.30;53.90
52575;DHT22;38468;48.114;-1.684;2023-01-15T11:19:39;12.40;56.20
52575;DHT22;38468;48.114;-1.684;2023-01-15T11:21:41;11.70;58.90
52575;DHT22;38468;48.114;-1.684;2023-01-15T11:23:43;11.40;58.70
52575;DHT22;38468;48.114;-1.684;2023-01-15T11:25:53;11.30;60.30
52575;DHT22;38468;48.114;-1.684;2023-01-15T11:27:55;11.70;58.10
52575;DHT22;38468;48.114;-1.684;2023-01-15T11:29:59;12.00;57.70
52575;DHT22;38468;48.114;-1.684;2023-01-15T11:32:00;12.00;57.50
52575;DHT22;38468;48.114;-1.684;2023-01-15T11:34:04;12.20;57.30
52575;DHT22;38468;48.114;-1.684;2023-01-15T11:36:17;11.90;57.00
52575;DHT22;38468;48.114;-1.684;2023-01-15T11:38:18;11.60;57.80
52575;DHT22;38468;48.114;-1.684;2023-01-15T11:40:22;11.50;57.80
52575;DHT22;38468;48.114;-1.684;2023-01-15T11:42:23;11.20;58.00
52575;DHT22;38468;48.114;-1.684;2023-01-15T11:44:50;11.40;58.40
52575;DHT22;38468;48.114;-1.684;2023-01-15T11:47:17;11.40;58.00
52575;DHT22;38468;48.114;-1.684;2023-01-15T11:49:38;11.50;57.40
52575;DHT22;38468;48.114;-1.684;2023-01-15T11:51:57;11.70;56.70
52575;DHT22;38468;48.114;-1.684;2023-01-15T11:54:03;11.70;56.50
52575;DHT22;38468;48.114;-1.684;2023-01-15T11:56:08;11.60;57.00
52575;DHT22;38468;48.114;-1.684;2023-01-15T11:58:10;11.90;56.70
52575;DHT22;38468;48.114;-1.684;2023-01-15T12:00:28;12.00;55.60
52575;DHT22;38468;48.114;-1.684;2023-01-15T12:02:34;11.90;56.30
52575;DHT22;38468;48.114;-1.684;2023-01-15T12:05:02;11.60;56.60
52575;DHT22;38468;48.114;-1.684;2023-01-15T12:07:05;11.70;57.30
52575;DHT22;38468;48.114;-1.684;2023-01-15T12:16:23;11.20;56.30
52575;DHT22;38468;48.114;-1.684;2023-01-15T12:25:22;10.80;57.50
52575;DHT22;38468;48.114;-1.684;2023-01-15T12:32:17;11.90;55.30
52575;DHT22;38468;48.114;-1.684;2023-01-15T12:36:38;12.50;53.30
52575;DHT22;38468;48.114;-1.684;2023-01-15T12:38:43;12.10;54.50
52575;DHT22;38468;48.114;-1.684;2023-01-15T12:40:50;12.20;54.90
52575;DHT22;38468;48.114;-1.684;2023-01-15T12:42:53;12.90;52.70
52575;DHT22;38468;48.114;-1.684;2023-01-15T12:45:30;13.30;53.40
52575;DHT22;38468;48.114;-1.684;2023-01-15T12:50:03;12.90;52.50
52575;DHT22;38468;48.114;-1.684;2023-01-15T12:52:10;12.50;53.50
52575;DHT22;38468;48.114;-1.684;2023-01-15T12:54:15;12.80;53.10
52575;DHT22;38468;48.114;-1.684;2023-01-15T12:56:32;12.50;53.10
52575;DHT22;38468;48.114;-1.684;2023-01-15T12:58:48;12.70;53.70
52575;DHT22;38468;48.114;-1.684;2023-01-15T13:03:29;13.50;51.80
52575;DHT22;38468;48.114;-1.684;2023-01-15T13:12:14;12.90;51.80
52575;DHT22;38468;48.114;-1.684;2023-01-15T13:14:15;12.80;52.30
52575;DHT22;38468;48.114;-1.684;2023-01-15T13:20:53;13.00;52.00
52575;DHT22;38468;48.114;-1.684;2023-01-15T13:23:17;12.70;53.20
52575;DHT22;38468;48.114;-1.684;2023-01-15T13:25:28;13.10;51.80
52575;DHT22;38468;48.114;-1.684;2023-01-15T13:30:31;13.60;51.10
52575;DHT22;38468;48.114;-1.684;2023-01-15T13:32:38;13.20;51.10
52575;DHT22;38468;48.114;-1.684;2023-01-15T13:35:05;13.10;51.90
52575;DHT22;38468;48.114;-1.684;2023-01-15T13:39:27;13.90;50.70
52575;DHT22;38468;48.114;-1.684;2023-01-15T13:41:33;13.40;52.10
52575;DHT22;38468;48.114;-1.684;2023-01-15T13:43:53;14.00;51.30
52575;DHT22;38468;48.114;-1.684;2023-01-15T13:46:02;14.00;50.20
52575;DHT22;38468;48.114;-1.684;2023-01-15T13:48:14;13.80;50.10
52575;DHT22;38468;48.114;-1.684;2023-01-15T13:50:22;13.70;51.30
52575;DHT22;38468;48.114;-1.684;2023-01-15T13:52:32;14.10;51.00
52575;DHT22;38468;48.114;-1.684;2023-01-15T13:54:39;14.10;50.30
52575;DHT22;38468;48.114;-1.684;2023-01-15T13:56:41;13.50;50.20
52575;DHT22;38468;48.114;-1.684;2023-01-15T14:03:29;13.10;52.70
52575;DHT22;38468;48.114;-1.684;2023-01-15T14:05:33;12.50;54.10
52575;DHT22;38468;48.114;-1.684;2023-01-15T14:07:36;12.70;53.00
52575;DHT22;38468;48.114;-1.684;2023-01-15T14:09:37;12.30;53.50
52575;DHT22;38468;48.114;-1.684;2023-01-15T14:16:32;11.20;55.80
52575;DHT22;38468;48.114;-1.684;2023-01-15T14:18:39;11.00;56.60
52575;DHT22;38468;48.114;-1.684;2023-01-15T14:20:52;11.30;56.80
52575;DHT22;38468;48.114;-1.684;2023-01-15T14:34:57;10.50;59.40
52575;DHT22;38468;48.114;-1.684;2023-01-15T14:37:04;10.60;59.50
52575;DHT22;38468;48.114;-1.684;2023-01-15T14:41:27;10.40;60.60
52575;DHT22;38468;48.114;-1.684;2023-01-15T14:43:32;10.50;60.40
52575;DHT22;38468;48.114;-1.684;2023-01-15T14:45:37;10.50;60.70
52575;DHT22;38468;48.114;-1.684;2023-01-15T14:49:45;10.40;61.20
52575;DHT22;38468;48.114;-1.684;2023-01-15T14:51:49;10.30;61.80
52575;DHT22;38468;48.114;-1.684;2023-01-15T14:53:56;10.40;62.00
52575;DHT22;38468;48.114;-1.684;2023-01-15T15:00:19;10.20;62.80
52575;DHT22;38468;48.114;-1.684;2023-01-15T15:02:31;10.20;62.90
52575;DHT22;38468;48.114;-1.684;2023-01-15T15:04:49;10.20;63.00
52575;DHT22;38468;48.114;-1.684;2023-01-15T15:09:01;10.10;63.90
52575;DHT22;38468;48.114;-1.684;2023-01-15T15:11:05;10.10;64.00
52575;DHT22;38468;48.114;-1.684;2023-01-15T15:13:35;10.00;64.20
52575;DHT22;38468;48.114;-1.684;2023-01-15T15:18:00;10.00;64.90